sensor_id;sensor_type;location;lat;lon;timestamp;pressure;altitude;pressure_sealevel;temperature;humidity
1652;BME280;823;49.028;8.454;2023-02-02T00:02:28;101191.56;;;9.38;55.75
1652;BME280;823;49.028;8.454;2023-02-02T00:07:29;101194.25;;;9.30;56.33
1652;BME280;823;49.028;8.454;2023-02-02T00:12:29;101197.69;;;9.32;56.31
1652;BME280;823;49.028;8.454;2023-02-02T00:17:29;101204.44;;;9.40;56.32
1652;BME280;823;49.028;8.454;2023-02-02T00:22:30;101217.06;;;9.60;56.09
1652;BME280;823;49.028;8.454;2023-02-02T00:27:30;101225.94;;;9.42;56.85
1652;BME280;823;49.028;8.454;2023-02-02T00:32:30;101217.63;;;9.21;57.42
1652;BME280;823;49.028;8.454;2023-02-02T00:37:30;101221.28;;;9.06;57.83
1652;BME280;823;49.028;8.454;2023-02-02T00:42:31;101217.03;;;9.00;57.75
1652;BME280;823;49.028;8.454;2023-02-02T00:47:31;101211.13;;;8.92;58.26
1652;BME280;823;49.028;8.454;2023-02-02T00:52:31;101211.34;;;8.77;58.78
1652;BME280;823;49.028;8.454;2023-02-02T00:57:32;101210.09;;;9.06;58.17
1652;BME280;823;49.028;8.454;2023-02-02T01:02:34;101197.38;;;8.90;58.38
1652;BME280;823;49.028;8.454;2023-02-02T01:07:34;101204.94;;;9.06;57.74
1652;BME280;823;49.028;8.454;2023-02-02T01:12:34;101216.28;;;8.94;58.04
1652;BME280;823;49.028;8.454;2023-02-02T01:17:35;101224.66;;;9.08;57.59
1652;BME280;823;49.028;8.454;2023-02-02T01:22:35;101230.91;;;8.93;57.77
1652;BME280;823;49.028;8.454;2023-02-02T01:27:37;101232.28;;;9.19;57.17
1652;BME280;823;49.028;8.454;2023-02-02T01:32:38;101238.34;;;9.15;57.31
1652;BME280;823;49.028;8.454;2023-02-02T01:37:38;101220.16;;;9.24;56.77
1652;BME280;823;49.028;8.454;2023-02-02T01:42:38;101221.94;;;9.19;56.98
1652;BME280;823;49.028;8.454;2023-02-02T01:47:46;101222.06;;;9.11;57.26
1652;BME280;823;49.028;8.454;2023-02-02T01:52:48;101227.84;;;9.29;57.07
1652;BME280;823;49.028;8.454;2023-02-02T01:58:07;101228.66;;;9.32;57.58
1652;BME280;823;49.028;8.454;2023-02-02T02:03:12;101217.97;;;8.95;58.62
1652;BME280;823;49.028;8.454;2023-02-02T02:08:19;101197.06;;;9.15;57.79
1652;BME280;823;49.028;8.454;2023-02-02T02:13:22;101197.09;;;9.12;58.00
1652;BME280;823;49.028;8.454;2023-02-02T02:18:57;101189.59;;;8.96;58.38
1652;BME280;823;49.028;8.454;2023-02-02T02:29:48;101201.56;;;9.00;58.25
1652;BME280;823;49.028;8.454;2023-02-02T02:35:02;101196.34;;;9.03;58.20
1652;BME280;823;49.028;8.454;2023-02-02T02:40:36;101208.28;;;9.11;58.01
1652;BME280;823;49.028;8.454;2023-02-02T02:45:37;101206.16;;;8.78;59.43
1652;BME280;823;49.028;8.454;2023-02-02T02:50:38;101212.03;;;8.88;58.96
1652;BME280;823;49.028;8.454;2023-02-02T02:55:48;101206.75;;;8.99;58.73
1652;BME280;823;49.028;8.454;2023-02-02T03:06:07;101208.47;;;8.97;59.10
1652;BME280;823;49.028;8.454;2023-02-02T03:11:12;101203.47;;;8.88;59.62
1652;BME280;823;49.028;8.454;2023-02-02T03:16:15;101205.97;;;8.92;59.76
1652;BME280;823;49.028;8.454;2023-02-02T03:21:16;101186.19;;;8.91;59.71
1652;BME280;823;49.028;8.454;2023-02-02T03:26:16;101198.44;;;8.77;59.97
1652;BME280;823;49.028;8.454;2023-02-02T03:31:17;101197.13;;;9.10;59.37
1652;BME280;823;49.028;8.454;2023-02-02T03:36:17;101209.59;;;8.77;60.06
1652;BME280;823;49.028;8.454;2023-02-02T03:41:17;101204.47;;;8.76;60.03
1652;BME280;823;49.028;8.454;2023-02-02T03:46:18;101218.81;;;8.95;59.64
1652;BME280;823;49.028;8.454;2023-02-02T03:51:18;101218.16;;;8.81;60.27
1652;BME280;823;49.028;8.454;2023-02-02T03:56:18;101212.16;;;8.79;60.22
1652;BME280;823;49.028;8.454;2023-02-02T04:01:26;101198.63;;;8.58;60.84
1652;BME280;823;49.028;8.454;2023-02-02T04:06:26;101201.97;;;8.66;60.56
1652;BME280;823;49.028;8.454;2023-02-02T04:11:27;101215.63;;;8.75;60.36
1652;BME280;823;49.028;8.454;2023-02-02T04:16:27;101214.66;;;8.86;60.03
1652;BME280;823;49.028;8.454;2023-02-02T04:21:30;101222.28;;;8.94;59.79
1652;BME280;823;49.028;8.454;2023-02-02T04:26:30;101212.16;;;8.79;60.07
1652;BME280;823;49.028;8.454;2023-02-02T04:31:30;101218.94;;;8.86;59.88
1652;BME280;823;49.028;8.454;2023-02-02T04:36:31;101218.72;;;9.05;59.24
1652;BME280;823;49.028;8.454;2023-02-02T04:41:31;101215.25;;;9.07;59.15
1652;BME280;823;49.028;8.454;2023-02-02T04:46:31;101220.44;;;9.06;59.04
1652;BME280;823;49.028;8.454;2023-02-02T04:51:33;101229.28;;;8.83;60.03
1652;BME280;823;49.028;8.454;2023-02-02T04:56:34;101239.69;;;8.77;59.98
1652;BME280;823;49.028;8.454;2023-02-02T05:01:35;101226.78;;;8.78;59.92
1652;BME280;823;49.028;8.454;2023-02-02T05:06:35;101230.06;;;8.91;59.91
1652;BME280;823;49.028;8.454;2023-02-02T05:11:35;101243.91;;;8.84;59.94
1652;BME280;823;49.028;8.454;2023-02-02T05:16:37;101242.69;;;9.13;59.29
1652;BME280;823;49.028;8.454;2023-02-02T05:21:38;101256.59;;;9.01;59.86
1652;BME280;823;49.028;8.454;2023-02-02T05:26:39;101266.31;;;8.79;60.35
1652;BME280;823;49.028;8.454;2023-02-02T05:31:39;101268.41;;;9.19;59.29
1652;BME280;823;49.028;8.454;2023-02-02T05:36:39;101274.38;;;9.24;59.12
1652;BME280;823;49.028;8.454;2023-02-02T05:41:40;101288.50;;;8.94;59.91
1652;BME280;823;49.028;8.454;2023-02-02T05:46:40;101284.72;;;9.23;58.85
1652;BME280;823;49.028;8.454;2023-02-02T05:51:44;101288.06;;;9.31;58.79
1652;BME280;823;49.028;8.454;2023-02-02T05:56:47;101288.03;;;9.32;58.82
1652;BME280;823;49.028;8.454;2023-02-02T06:01:48;101287.19;;;9.30;58.91
1652;BME280;823;49.028;8.454;2023-02-02T06:06:48;101282.22;;;9.18;59.31
1652;BME280;823;49.028;8.454;2023-02-02T06:11:49;101299.38;;;9.19;58.94
1652;BME280;823;49.028;8.454;2023-02-02T06:16:49;101297.44;;;9.36;58.88
1652;BME280;823;49.028;8.454;2023-02-02T06:21:49;101307.88;;;9.27;59.08
1652;BME280;823;49.028;8.454;2023-02-02T06:26:49;101301.09;;;9.20;59.46
1652;BME280;823;49.028;8.454;2023-02-02T06:31:50;101286.19;;;9.41;58.75
1652;BME280;823;49.028;8.454;2023-02-02T06:36:50;101284.94;;;9.06;59.95
1652;BME280;823;49.028;8.454;2023-02-02T06:41:50;101275.56;;;8.97;60.23
1652;BME280;823;49.028;8.454;2023-02-02T06:46:51;101301.31;;;9.03;60.52
1652;BME280;823;49.028;8.454;2023-02-02T06:51:51;101288.50;;;8.95;60.71
1652;BME280;823;49.028;8.454;2023-02-02T06:56:51;101286.00;;;8.86;61.11
1652;BME280;823;49.028;8.454;2023-02-02T07:01:52;101283.81;;;9.27;59.97
1652;BME280;823;49.028;8.454;2023-02-02T07:06:52;101284.75;;;9.21;60.28
1652;BME280;823;49.028;8.454;2023-02-02T07:11:52;101284.94;;;9.04;60.65
1652;BME280;823;49.028;8.454;2023-02-02T07:16:53;101295.25;;;9.07;60.65
1652;BME280;823;49.028;8.454;2023-02-02T07:21:53;101304.59;;;9.16;60.35
1652;BME280;823;49.028;8.454;2023-02-02T07:26:54;101304.06;;;9.56;59.17
1652;BME280;823;49.028;8.454;2023-02-02T07:31:54;101298.28;;;9.37;59.44
1652;BME280;823;49.028;8.454;2023-02-02T07:36:54;101306.09;;;9.32;59.38
1652;BME280;823;49.028;8.454;2023-02-02T07:41:55;101298.44;;;9.28;59.37
1652;BME280;823;49.028;8.454;2023-02-02T07:46:55;101293.97;;;9.39;58.89
1652;BME280;823;49.028;8.454;2023-02-02T07:51:56;101317.91;;;9.50;58.77
1652;BME280;823;49.028;8.454;2023-02-02T07:56:57;101316.28;;;9.45;58.62
1652;BME280;823;49.028;8.454;2023-02-02T08:01:57;101340.22;;;9.56;58.72
1652;BME280;823;49.028;8.454;2023-02-02T08:06:57;101344.63;;;9.48;58.29
1652;BME280;823;49.028;8.454;2023-02-02T08:11:58;101354.72;;;9.66;58.35
1652;BME280;823;49.028;8.454;2023-02-02T08:17:00;101366.69;;;9.74;58.18
1652;BME280;823;49.028;8.454;2023-02-02T08:22:02;101371.09;;;9.65;58.43
1652;BME280;823;49.028;8.454;2023-02-02T08:27:02;101372.84;;;9.62;58.67
1652;BME280;823;49.028;8.454;2023-02-02T08:32:03;101377.88;;;9.73;58.63
1652;BME280;823;49.028;8.454;2023-02-02T08:37:03;101378.81;;;9.67;58.50
1652;BME280;823;49.028;8.454;2023-02-02T08:42:04;101398.56;;;9.73;58.35
1652;BME280;823;49.028;8.454;2023-02-02T08:47:04;101393.16;;;9.88;57.86
1652;BME280;823;49.028;8.454;2023-02-02T08:52:04;101374.97;;;9.96;58.13
1652;BME280;823;49.028;8.454;2023-02-02T08:57:05;101368.75;;;10.08;57.64
1652;BME280;823;49.028;8.454;2023-02-02T09:02:05;101375.00;;;9.93;58.15
1652;BME280;823;49.028;8.454;2023-02-02T09:07:05;101381.84;;;9.97;57.73
1652;BME280;823;49.028;8.454;2023-02-02T09:12:06;101372.47;;;9.89;58.23
1652;BME280;823;49.028;8.454;2023-02-02T09:17:06;101372.72;;;9.73;58.83
1652;BME280;823;49.028;8.454;2023-02-02T09:22:06;101370.66;;;9.96;58.23
1652;BME280;823;49.028;8.454;2023-02-02T09:27:07;101369.13;;;9.83;58.73
1652;BME280;823;49.028;8.454;2023-02-02T09:32:07;101372.06;;;10.16;57.75
1652;BME280;823;49.028;8.454;2023-02-02T09:37:08;101382.31;;;10.23;57.58
1652;BME280;823;49.028;8.454;2023-02-02T09:42:23;101404.94;;;10.11;57.60
1652;BME280;823;49.028;8.454;2023-02-02T09:53:10;101405.44;;;10.36;56.89
1652;BME280;823;49.028;8.454;2023-02-02T09:58:24;101397.28;;;10.61;56.12
1652;BME280;823;49.028;8.454;2023-02-02T10:08:42;101414.72;;;10.48;56.37
1652;BME280;823;49.028;8.454;2023-02-02T10:13:45;101425.06;;;10.48;56.22
1652;BME280;823;49.028;8.454;2023-02-02T10:18:56;101421.66;;;10.46;56.07
1652;BME280;823;49.028;8.454;2023-02-02T10:24:01;101432.06;;;10.39;56.42
1652;BME280;823;49.028;8.454;2023-02-02T10:29:16;101433.78;;;10.41;56.46
1652;BME280;823;49.028;8.454;2023-02-02T10:34:40;101431.13;;;10.47;56.64
1652;BME280;823;49.028;8.454;2023-02-02T10:45:03;101423.44;;;10.41;56.40
1652;BME280;823;49.028;8.454;2023-02-02T11:05:23;101415.06;;;10.25;57.03
1652;BME280;823;49.028;8.454;2023-02-02T11:10:44;101420.56;;;10.61;55.95
1652;BME280;823;49.028;8.454;2023-02-02T11:15:44;101437.59;;;10.72;55.69
1652;BME280;823;49.028;8.454;2023-02-02T11:20:45;101451.63;;;10.57;56.04
1652;BME280;823;49.028;8.454;2023-02-02T11:25:55;101441.47;;;10.47;55.92
1652;BME280;823;49.028;8.454;2023-02-02T11:30:56;101449.38;;;10.37;56.45
1652;BME280;823;49.028;8.454;2023-02-02T11:41:04;101438.69;;;10.57;55.96
1652;BME280;823;49.028;8.454;2023-02-02T11:46:36;101430.56;;;10.25;56.93
1652;BME280;823;49.028;8.454;2023-02-02T11:51:37;101440.28;;;10.66;55.53
1652;BME280;823;49.028;8.454;2023-02-02T11:56:38;101432.06;;;10.43;56.14
1652;BME280;823;49.028;8.454;2023-02-02T12:01:38;101423.00;;;10.68;55.59
1652;BME280;823;49.028;8.454;2023-02-02T12:06:39;101413.63;;;10.61;55.88
1652;BME280;823;49.028;8.454;2023-02-02T12:27:49;101422.72;;;10.84;55.20
1652;BME280;823;49.028;8.454;2023-02-02T12:38:37;101431.19;;;10.42;56.63
1652;BME280;823;49.028;8.454;2023-02-02T12:43:43;101430.16;;;10.54;55.88
1652;BME280;823;49.028;8.454;2023-02-02T12:48:55;101438.56;;;10.65;55.71
1652;BME280;823;49.028;8.454;2023-02-02T12:54:11;101445.59;;;10.57;56.16
1652;BME280;823;49.028;8.454;2023-02-02T13:10:09;101421.78;;;10.88;55.26
1652;BME280;823;49.028;8.454;2023-02-02T13:15:16;101421.97;;;10.79;55.61
1652;BME280;823;49.028;8.454;2023-02-02T13:20:37;101429.19;;;10.60;55.93
1652;BME280;823;49.028;8.454;2023-02-02T13:25:45;101435.19;;;10.60;56.05
1652;BME280;823;49.028;8.454;2023-02-02T13:30:48;101443.59;;;10.75;55.59
1652;BME280;823;49.028;8.454;2023-02-02T13:36:13;101436.97;;;10.58;56.08
1652;BME280;823;49.028;8.454;2023-02-02T13:41:15;101433.28;;;10.71;55.53
1652;BME280;823;49.028;8.454;2023-02-02T13:46:35;101431.69;;;10.64;55.52
1652;BME280;823;49.028;8.454;2023-02-02T14:02:43;101440.50;;;10.54;55.20
1652;BME280;823;49.028;8.454;2023-02-02T14:07:45;101444.44;;;10.75;54.63
1652;BME280;823;49.028;8.454;2023-02-02T14:12:46;101448.97;;;10.62;54.76
1652;BME280;823;49.028;8.454;2023-02-02T14:17:50;101447.09;;;10.72;54.31
1652;BME280;823;49.028;8.454;2023-02-02T14:22:51;101439.06;;;10.31;55.36
1652;BME280;823;49.028;8.454;2023-02-02T14:27:56;101462.06;;;10.53;54.46
1652;BME280;823;49.028;8.454;2023-02-02T14:33:26;101462.03;;;10.54;54.38
1652;BME280;823;49.028;8.454;2023-02-02T14:39:07;101450.88;;;10.52;54.08
1652;BME280;823;49.028;8.454;2023-02-02T14:44:09;101458.47;;;10.62;53.92
1652;BME280;823;49.028;8.454;2023-02-02T14:49:11;101471.16;;;10.79;53.43
1652;BME280;823;49.028;8.454;2023-02-02T14:54:20;101479.88;;;10.70;53.20
1652;BME280;823;49.028;8.454;2023-02-02T14:59:34;101494.50;;;10.72;53.38
1652;BME280;823;49.028;8.454;2023-02-02T15:04:35;101483.25;;;10.77;53.27
1652;BME280;823;49.028;8.454;2023-02-02T15:09:36;101487.22;;;10.96;52.76
1652;BME280;823;49.028;8.454;2023-02-02T15:14:41;101492.72;;;10.78;53.00
1652;BME280;823;49.028;8.454;2023-02-02T15:19:47;101494.66;;;10.63;53.79
1652;BME280;823;49.028;8.454;2023-02-02T15:24:51;101507.47;;;10.71;53.63
1652;BME280;823;49.028;8.454;2023-02-02T15:29:55;101513.53;;;10.70;53.80
1652;BME280;823;49.028;8.454;2023-02-02T15:35:02;101514.41;;;10.67;53.65
1652;BME280;823;49.028;8.454;2023-02-02T15:40:07;101518.66;;;10.75;53.69
1652;BME280;823;49.028;8.454;2023-02-02T15:50:27;101529.63;;;10.89;53.21
1652;BME280;823;49.028;8.454;2023-02-02T15:55:33;101545.09;;;10.92;53.13
1652;BME280;823;49.028;8.454;2023-02-02T16:00:34;101555.06;;;10.59;54.13
1652;BME280;823;49.028;8.454;2023-02-02T16:10:37;101576.22;;;10.89;53.70
1652;BME280;823;49.028;8.454;2023-02-02T16:15:37;101590.22;;;10.74;54.45
1652;BME280;823;49.028;8.454;2023-02-02T16:20:38;101608.38;;;10.72;54.39
1652;BME280;823;49.028;8.454;2023-02-02T16:25:47;101629.59;;;10.96;53.79
1652;BME280;823;49.028;8.454;2023-02-02T16:30:49;101635.06;;;10.76;54.77
1652;BME280;823;49.028;8.454;2023-02-02T16:35:53;101653.34;;;10.64;55.42
1652;BME280;823;49.028;8.454;2023-02-02T16:46:10;101677.56;;;10.58;55.27
1652;BME280;823;49.028;8.454;2023-02-02T16:56:42;101689.41;;;10.78;55.03
1652;BME280;823;49.028;8.454;2023-02-02T17:01:47;101705.59;;;10.90;54.31
1652;BME280;823;49.028;8.454;2023-02-02T17:06:52;101698.38;;;10.49;55.59
1652;BME280;823;49.028;8.454;2023-02-02T17:17:14;101701.22;;;10.96;54.00
1652;BME280;823;49.028;8.454;2023-02-02T17:22:17;101701.41;;;10.83;54.16
1652;BME280;823;49.028;8.454;2023-02-02T17:27:25;101714.47;;;10.72;54.33
1652;BME280;823;49.028;8.454;2023-02-02T17:32:26;101724.13;;;10.58;54.19
1652;BME280;823;49.028;8.454;2023-02-02T17:37:26;101728.38;;;10.64;54.04
1652;BME280;823;49.028;8.454;2023-02-02T17:42:27;101727.28;;;10.83;53.62
1652;BME280;823;49.028;8.454;2023-02-02T17:47:27;101731.59;;;10.83;53.45
1652;BME280;823;49.028;8.454;2023-02-02T17:52:27;101737.38;;;11.02;53.04
1652;BME280;823;49.028;8.454;2023-02-02T17:57:28;101736.94;;;10.67;53.93
1652;BME280;823;49.028;8.454;2023-02-02T18:02:28;101744.78;;;10.61;54.31
1652;BME280;823;49.028;8.454;2023-02-02T18:07:29;101745.00;;;10.44;54.44
1652;BME280;823;49.028;8.454;2023-02-02T18:12:29;101754.31;;;10.56;54.24
1652;BME280;823;49.028;8.454;2023-02-02T18:17:30;101751.66;;;10.64;54.02
1652;BME280;823;49.028;8.454;2023-02-02T18:22:31;101759.53;;;10.53;54.12
1652;BME280;823;49.028;8.454;2023-02-02T18:27:31;101749.94;;;10.63;53.79
1652;BME280;823;49.028;8.454;2023-02-02T18:32:38;101742.81;;;10.82;53.44
1652;BME280;823;49.028;8.454;2023-02-02T18:37:40;101737.78;;;10.71;53.59
1652;BME280;823;49.028;8.454;2023-02-02T18:42:40;101743.84;;;10.68;53.68
1652;BME280;823;49.028;8.454;2023-02-02T18:47:40;101737.16;;;10.49;54.28
1652;BME280;823;49.028;8.454;2023-02-02T18:52:41;101735.47;;;10.46;54.63
1652;BME280;823;49.028;8.454;2023-02-02T18:57:41;101743.16;;;10.54;54.37
1652;BME280;823;49.028;8.454;2023-02-02T19:02:41;101753.38;;;10.65;54.24
1652;BME280;823;49.028;8.454;2023-02-02T19:07:42;101748.41;;;10.46;55.02
1652;BME280;823;49.028;8.454;2023-02-02T19:13:08;101748.28;;;10.57;54.68
1652;BME280;823;49.028;8.454;2023-02-02T19:18:14;101752.72;;;10.47;54.91
1652;BME280;823;49.028;8.454;2023-02-02T19:23:20;101750.97;;;10.51;55.04
1652;BME280;823;49.028;8.454;2023-02-02T19:28:24;101745.81;;;10.46;55.12
1652;BME280;823;49.028;8.454;2023-02-02T19:33:40;101745.63;;;10.63;54.85
1652;BME280;823;49.028;8.454;2023-02-02T19:38:42;101738.88;;;10.50;55.60
1652;BME280;823;49.028;8.454;2023-02-02T19:43:42;101740.28;;;10.76;55.30
1652;BME280;823;49.028;8.454;2023-02-02T19:48:47;101751.72;;;10.61;55.28
1652;BME280;823;49.028;8.454;2023-02-02T19:53:48;101763.03;;;10.49;55.44
1652;BME280;823;49.028;8.454;2023-02-02T19:58:48;101755.25;;;10.50;55.49
1652;BME280;823;49.028;8.454;2023-02-02T20:03:48;101753.53;;;10.49;55.36
1652;BME280;823;49.028;8.454;2023-02-02T20:08:50;101752.72;;;10.46;55.19
1652;BME280;823;49.028;8.454;2023-02-02T20:13:50;101752.84;;;10.30;55.64
1652;BME280;823;49.028;8.454;2023-02-02T20:18:56;101743.47;;;10.20;55.67
1652;BME280;823;49.028;8.454;2023-02-02T20:23:56;101739.19;;;10.16;56.00
1652;BME280;823;49.028;8.454;2023-02-02T20:28:59;101741.66;;;10.28;55.52
1652;BME280;823;49.028;8.454;2023-02-02T20:34:00;101737.53;;;10.09;55.84
1652;BME280;823;49.028;8.454;2023-02-02T20:44:28;101747.84;;;10.12;55.41
1652;BME280;823;49.028;8.454;2023-02-02T20:49:29;101750.16;;;10.44;54.65
1652;BME280;823;49.028;8.454;2023-02-02T20:54:30;101752.84;;;10.32;54.65
1652;BME280;823;49.028;8.454;2023-02-02T20:59:31;101746.09;;;10.17;54.79
1652;BME280;823;49.028;8.454;2023-02-02T21:04:32;101750.16;;;10.41;53.88
1652;BME280;823;49.028;8.454;2023-02-02T21:09:32;101764.84;;;10.41;53.80
1652;BME280;823;49.028;8.454;2023-02-02T21:14:33;101763.13;;;10.39;53.91
1652;BME280;823;49.028;8.454;2023-02-02T21:19:33;101764.50;;;10.71;52.67
1652;BME280;823;49.028;8.454;2023-02-02T21:24:33;101769.78;;;10.62;52.83
1652;BME280;823;49.028;8.454;2023-02-02T21:29:34;101764.63;;;10.59;53.11
1652;BME280;823;49.028;8.454;2023-02-02T21:34:34;101764.72;;;10.53;53.79
1652;BME280;823;49.028;8.454;2023-02-02T21:39:36;101755.34;;;10.44;53.91
1652;BME280;823;49.028;8.454;2023-02-02T21:44:39;101764.75;;;10.50;53.89
1652;BME280;823;49.028;8.454;2023-02-02T21:49:40;101760.41;;;10.55;53.79
1652;BME280;823;49.028;8.454;2023-02-02T21:54:41;101766.59;;;10.35;54.62
1652;BME280;823;49.028;8.454;2023-02-02T21:59:41;101764.91;;;10.34;54.91
1652;BME280;823;49.028;8.454;2023-02-02T22:04:42;101765.69;;;10.43;55.00
1652;BME280;823;49.028;8.454;2023-02-02T22:09:43;101762.31;;;10.30;56.31
1652;BME280;823;49.028;8.454;2023-02-02T22:14:45;101776.25;;;10.16;57.10
1652;BME280;823;49.028;8.454;2023-02-02T22:19:47;101773.91;;;9.88;58.12
1652;BME280;823;49.028;8.454;2023-02-02T22:24:57;101771.88;;;10.23;57.17
1652;BME280;823;49.028;8.454;2023-02-02T22:30:02;101772.91;;;10.03;57.78
1652;BME280;823;49.028;8.454;2023-02-02T22:35:09;101769.38;;;10.14;57.39
1652;BME280;823;49.028;8.454;2023-02-02T22:40:10;101759.97;;;10.08;57.69
1652;BME280;823;49.028;8.454;2023-02-02T22:45:11;101761.53;;;10.23;57.33
1652;BME280;823;49.028;8.454;2023-02-02T22:50:14;101759.00;;;10.18;57.14
1652;BME280;823;49.028;8.454;2023-02-02T22:55:15;101761.59;;;10.17;57.00
1652;BME280;823;49.028;8.454;2023-02-02T23:00:22;101768.56;;;10.09;57.48
1652;BME280;823;49.028;8.454;2023-02-02T23:05:25;101761.59;;;10.17;56.82
1652;BME280;823;49.028;8.454;2023-02-02T23:10:26;101773.66;;;10.18;56.85
1652;BME280;823;49.028;8.454;2023-02-02T23:15:28;101773.78;;;10.02;57.01
1652;BME280;823;49.028;8.454;2023-02-02T23:20:29;101793.59;;;10.07;56.93
1652;BME280;823;49.028;8.454;2023-02-02T23:25:30;101793.69;;;9.89;57.70
1652;BME280;823;49.028;8.454;2023-02-02T23:30:30;101807.34;;;10.07;57.06
1652;BME280;823;49.028;8.454;2023-02-02T23:35:30;101812.53;;;10.07;57.29
1652;BME280;823;49.028;8.454;2023-02-02T23:40:31;101813.38;;;10.08;57.14
1652;BME280;823;49.028;8.454;2023-02-02T23:45:31;101816.81;;;10.10;57.33
1652;BME280;823;49.028;8.454;2023-02-02T23:50:32;101811.56;;;10.17;57.05
1652;BME280;823;49.028;8.454;2023-02-02T23:55:33;101809.88;;;10.13;56.96
